sensor_id;sensor_type;location;lat;lon;timestamp;P1;durP1;ratioP1;P2;durP2;ratioP2
72209;SDS011;60113;48.762;12.302;2022-09-09T00:02:26;20.02;;;12.15;;
72209;SDS011;60113;48.762;12.302;2022-09-09T00:08:03;14.65;;;9.07;;
72209;SDS011;60113;48.762;12.302;2022-09-09T00:10:54;14.90;;;9.23;;
72209;SDS011;60113;48.762;12.302;2022-09-09T00:13:48;17.58;;;9.98;;
72209;SDS011;60113;48.762;12.302;2022-09-09T00:16:45;16.30;;;9.77;;
72209;SDS011;60113;48.762;12.302;2022-09-09T00:19:44;18.98;;;10.20;;
72209;SDS011;60113;48.762;12.302;2022-09-09T00:22:35;23.55;;;10.10;;
72209;SDS011;60113;48.762;12.302;2022-09-09T00:28:23;14.57;;;8.27;;
72209;SDS011;60113;48.762;12.302;2022-09-09T00:31:23;19.10;;;9.38;;
72209;SDS011;60113;48.762;12.302;2022-09-09T00:34:13;25.58;;;11.82;;
72209;SDS011;60113;48.762;12.302;2022-09-09T00:37:04;26.58;;;16.05;;
72209;SDS011;60113;48.762;12.302;2022-09-09T00:39:50;37.10;;;20.42;;
72209;SDS011;60113;48.762;12.302;2022-09-09T00:42:42;45.83;;;21.63;;
72209;SDS011;60113;48.762;12.302;2022-09-09T00:48:26;36.45;;;18.08;;
72209;SDS011;60113;48.762;12.302;2022-09-09T00:51:29;35.40;;;17.20;;
72209;SDS011;60113;48.762;12.302;2022-09-09T00:57:36;29.33;;;13.98;;
72209;SDS011;60113;48.762;12.302;2022-09-09T01:00:23;24.70;;;13.02;;
72209;SDS011;60113;48.762;12.302;2022-09-09T01:06:29;20.73;;;11.63;;
72209;SDS011;60113;48.762;12.302;2022-09-09T01:12:16;28.95;;;12.65;;
72209;SDS011;60113;48.762;12.302;2022-09-09T01:17:59;36.50;;;12.55;;
72209;SDS011;60113;48.762;12.302;2022-09-09T01:23:52;36.28;;;17.88;;
72209;SDS011;60113;48.762;12.302;2022-09-09T01:26:50;39.20;;;21.13;;
72209;SDS011;60113;48.762;12.302;2022-09-09T01:29:38;47.25;;;23.73;;
72209;SDS011;60113;48.762;12.302;2022-09-09T01:32:38;46.15;;;22.38;;
72209;SDS011;60113;48.762;12.302;2022-09-09T01:38:25;35.97;;;17.33;;
72209;SDS011;60113;48.762;12.302;2022-09-09T01:41:12;30.02;;;13.57;;
72209;SDS011;60113;48.762;12.302;2022-09-09T01:43:58;23.35;;;13.45;;
72209;SDS011;60113;48.762;12.302;2022-09-09T01:46:44;25.92;;;11.93;;
72209;SDS011;60113;48.762;12.302;2022-09-09T01:49:29;23.30;;;13.25;;
72209;SDS011;60113;48.762;12.302;2022-09-09T01:52:16;22.65;;;13.70;;
72209;SDS011;60113;48.762;12.302;2022-09-09T01:55:02;19.13;;;11.05;;
72209;SDS011;60113;48.762;12.302;2022-09-09T02:03:57;23.92;;;13.70;;
72209;SDS011;60113;48.762;12.302;2022-09-09T02:06:46;22.10;;;12.98;;
72209;SDS011;60113;48.762;12.302;2022-09-09T02:09:34;21.90;;;11.80;;
72209;SDS011;60113;48.762;12.302;2022-09-09T02:12:21;20.75;;;12.15;;
72209;SDS011;60113;48.762;12.302;2022-09-09T02:15:17;19.23;;;11.32;;
72209;SDS011;60113;48.762;12.302;2022-09-09T02:18:07;21.40;;;11.48;;
72209;SDS011;60113;48.762;12.302;2022-09-09T02:20:56;13.43;;;8.65;;
72209;SDS011;60113;48.762;12.302;2022-09-09T02:23:43;16.17;;;8.95;;
72209;SDS011;60113;48.762;12.302;2022-09-09T02:26:32;19.02;;;10.18;;
72209;SDS011;60113;48.762;12.302;2022-09-09T02:29:28;26.33;;;13.63;;
72209;SDS011;60113;48.762;12.302;2022-09-09T02:32:19;31.45;;;16.52;;
72209;SDS011;60113;48.762;12.302;2022-09-09T02:35:12;25.80;;;14.32;;
72209;SDS011;60113;48.762;12.302;2022-09-09T02:38:01;33.67;;;16.95;;
72209;SDS011;60113;48.762;12.302;2022-09-09T02:40:52;36.72;;;20.08;;
72209;SDS011;60113;48.762;12.302;2022-09-09T02:43:37;37.13;;;18.50;;
72209;SDS011;60113;48.762;12.302;2022-09-09T02:49:10;46.00;;;21.52;;
72209;SDS011;60113;48.762;12.302;2022-09-09T02:52:15;44.33;;;19.10;;
72209;SDS011;60113;48.762;12.302;2022-09-09T02:55:17;37.80;;;19.98;;
72209;SDS011;60113;48.762;12.302;2022-09-09T02:58:05;28.20;;;13.45;;
72209;SDS011;60113;48.762;12.302;2022-09-09T03:00:53;21.98;;;11.95;;
72209;SDS011;60113;48.762;12.302;2022-09-09T03:07:16;24.45;;;12.05;;
72209;SDS011;60113;48.762;12.302;2022-09-09T03:10:03;27.48;;;15.13;;
72209;SDS011;60113;48.762;12.302;2022-09-09T03:12:49;26.38;;;14.27;;
72209;SDS011;60113;48.762;12.302;2022-09-09T03:15:35;27.25;;;13.25;;
72209;SDS011;60113;48.762;12.302;2022-09-09T03:18:21;26.75;;;14.32;;
72209;SDS011;60113;48.762;12.302;2022-09-09T03:21:07;26.30;;;15.18;;
72209;SDS011;60113;48.762;12.302;2022-09-09T03:23:52;32.95;;;16.13;;
72209;SDS011;60113;48.762;12.302;2022-09-09T03:26:38;32.50;;;14.93;;
72209;SDS011;60113;48.762;12.302;2022-09-09T03:29:26;34.38;;;17.52;;
72209;SDS011;60113;48.762;12.302;2022-09-09T03:32:12;35.60;;;17.63;;
72209;SDS011;60113;48.762;12.302;2022-09-09T03:34:58;51.80;;;19.77;;
72209;SDS011;60113;48.762;12.302;2022-09-09T03:37:44;41.50;;;20.95;;
72209;SDS011;60113;48.762;12.302;2022-09-09T03:40:30;32.40;;;16.00;;
72209;SDS011;60113;48.762;12.302;2022-09-09T03:43:16;26.35;;;14.20;;
72209;SDS011;60113;48.762;12.302;2022-09-09T03:46:02;24.33;;;12.98;;
72209;SDS011;60113;48.762;12.302;2022-09-09T03:48:48;37.08;;;14.23;;
72209;SDS011;60113;48.762;12.302;2022-09-09T03:51:34;28.50;;;15.02;;
72209;SDS011;60113;48.762;12.302;2022-09-09T03:54:22;27.55;;;15.25;;
72209;SDS011;60113;48.762;12.302;2022-09-09T03:57:09;26.70;;;13.02;;
72209;SDS011;60113;48.762;12.302;2022-09-09T03:59:55;29.67;;;15.10;;
72209;SDS011;60113;48.762;12.302;2022-09-09T04:02:41;29.67;;;14.90;;
72209;SDS011;60113;48.762;12.302;2022-09-09T04:05:28;39.05;;;17.73;;
72209;SDS011;60113;48.762;12.302;2022-09-09T04:08:14;38.28;;;18.40;;
72209;SDS011;60113;48.762;12.302;2022-09-09T04:11:00;45.70;;;19.42;;
72209;SDS011;60113;48.762;12.302;2022-09-09T04:13:47;45.70;;;20.70;;
72209;SDS011;60113;48.762;12.302;2022-09-09T04:16:34;52.30;;;23.10;;
72209;SDS011;60113;48.762;12.302;2022-09-09T04:19:22;62.38;;;24.70;;
72209;SDS011;60113;48.762;12.302;2022-09-09T04:22:07;67.90;;;27.55;;
72209;SDS011;60113;48.762;12.302;2022-09-09T04:24:53;71.85;;;30.80;;
72209;SDS011;60113;48.762;12.302;2022-09-09T04:27:39;72.72;;;31.55;;
72209;SDS011;60113;48.762;12.302;2022-09-09T04:30:25;76.00;;;32.55;;
72209;SDS011;60113;48.762;12.302;2022-09-09T04:33:13;62.10;;;26.50;;
72209;SDS011;60113;48.762;12.302;2022-09-09T04:35:59;39.63;;;17.08;;
72209;SDS011;60113;48.762;12.302;2022-09-09T04:38:45;24.45;;;12.07;;
72209;SDS011;60113;48.762;12.302;2022-09-09T04:41:32;21.02;;;9.43;;
72209;SDS011;60113;48.762;12.302;2022-09-09T04:44:18;18.83;;;9.68;;
72209;SDS011;60113;48.762;12.302;2022-09-09T04:47:04;24.38;;;9.82;;
72209;SDS011;60113;48.762;12.302;2022-09-09T04:49:50;34.78;;;13.70;;
72209;SDS011;60113;48.762;12.302;2022-09-09T04:52:36;33.53;;;13.88;;
72209;SDS011;60113;48.762;12.302;2022-09-09T04:55:22;32.60;;;13.07;;
72209;SDS011;60113;48.762;12.302;2022-09-09T04:58:08;38.13;;;13.10;;
72209;SDS011;60113;48.762;12.302;2022-09-09T05:00:54;23.80;;;11.80;;
72209;SDS011;60113;48.762;12.302;2022-09-09T05:03:40;26.15;;;10.10;;
72209;SDS011;60113;48.762;12.302;2022-09-09T05:06:26;20.08;;;10.38;;
72209;SDS011;60113;48.762;12.302;2022-09-09T05:09:11;32.33;;;11.70;;
72209;SDS011;60113;48.762;12.302;2022-09-09T05:11:57;25.05;;;11.95;;
72209;SDS011;60113;48.762;12.302;2022-09-09T05:14:43;28.25;;;12.88;;
72209;SDS011;60113;48.762;12.302;2022-09-09T05:17:29;25.60;;;11.93;;
72209;SDS011;60113;48.762;12.302;2022-09-09T05:20:15;19.50;;;10.63;;
72209;SDS011;60113;48.762;12.302;2022-09-09T05:23:01;26.33;;;12.88;;
72209;SDS011;60113;48.762;12.302;2022-09-09T05:25:54;34.95;;;14.80;;
72209;SDS011;60113;48.762;12.302;2022-09-09T05:28:40;35.33;;;16.65;;
72209;SDS011;60113;48.762;12.302;2022-09-09T05:31:26;34.53;;;15.48;;
72209;SDS011;60113;48.762;12.302;2022-09-09T05:34:15;25.88;;;13.20;;
72209;SDS011;60113;48.762;12.302;2022-09-09T05:37:01;28.40;;;13.88;;
72209;SDS011;60113;48.762;12.302;2022-09-09T05:39:47;37.20;;;17.17;;
72209;SDS011;60113;48.762;12.302;2022-09-09T05:42:33;53.30;;;22.10;;
72209;SDS011;60113;48.762;12.302;2022-09-09T05:45:19;58.85;;;27.00;;
72209;SDS011;60113;48.762;12.302;2022-09-09T05:48:05;70.18;;;27.80;;
72209;SDS011;60113;48.762;12.302;2022-09-09T05:50:53;73.13;;;27.75;;
72209;SDS011;60113;48.762;12.302;2022-09-09T05:53:39;60.55;;;26.45;;
72209;SDS011;60113;48.762;12.302;2022-09-09T05:56:26;64.15;;;27.48;;
72209;SDS011;60113;48.762;12.302;2022-09-09T05:59:13;66.15;;;27.10;;
72209;SDS011;60113;48.762;12.302;2022-09-09T06:02:00;60.67;;;29.80;;
72209;SDS011;60113;48.762;12.302;2022-09-09T06:04:46;55.65;;;24.60;;
72209;SDS011;60113;48.762;12.302;2022-09-09T06:07:32;13.88;;;5.47;;
72209;SDS011;60113;48.762;12.302;2022-09-09T06:10:17;13.45;;;7.00;;
72209;SDS011;60113;48.762;12.302;2022-09-09T06:13:04;14.30;;;7.95;;
72209;SDS011;60113;48.762;12.302;2022-09-09T06:15:50;17.08;;;9.35;;
72209;SDS011;60113;48.762;12.302;2022-09-09T06:18:37;23.55;;;12.60;;
72209;SDS011;60113;48.762;12.302;2022-09-09T06:21:25;30.35;;;13.45;;
72209;SDS011;60113;48.762;12.302;2022-09-09T06:24:15;22.77;;;11.45;;
72209;SDS011;60113;48.762;12.302;2022-09-09T06:27:02;19.67;;;10.18;;
72209;SDS011;60113;48.762;12.302;2022-09-09T06:29:48;17.50;;;7.20;;
72209;SDS011;60113;48.762;12.302;2022-09-09T06:32:34;9.25;;;5.53;;
72209;SDS011;60113;48.762;12.302;2022-09-09T06:35:22;11.50;;;5.75;;
72209;SDS011;60113;48.762;12.302;2022-09-09T06:38:08;7.53;;;5.18;;
72209;SDS011;60113;48.762;12.302;2022-09-09T06:40:54;7.90;;;4.50;;
72209;SDS011;60113;48.762;12.302;2022-09-09T06:43:41;11.27;;;4.95;;
72209;SDS011;60113;48.762;12.302;2022-09-09T06:46:27;11.77;;;5.43;;
72209;SDS011;60113;48.762;12.302;2022-09-09T06:49:15;5.97;;;4.55;;
72209;SDS011;60113;48.762;12.302;2022-09-09T06:52:02;7.53;;;5.63;;
72209;SDS011;60113;48.762;12.302;2022-09-09T06:54:48;7.43;;;5.80;;
72209;SDS011;60113;48.762;12.302;2022-09-09T06:57:33;8.23;;;5.32;;
72209;SDS011;60113;48.762;12.302;2022-09-09T07:00:19;8.50;;;4.60;;
72209;SDS011;60113;48.762;12.302;2022-09-09T07:03:05;10.88;;;3.97;;
72209;SDS011;60113;48.762;12.302;2022-09-09T07:05:54;8.27;;;4.00;;
72209;SDS011;60113;48.762;12.302;2022-09-09T07:08:41;8.90;;;3.65;;
72209;SDS011;60113;48.762;12.302;2022-09-09T07:11:28;6.82;;;3.20;;
72209;SDS011;60113;48.762;12.302;2022-09-09T07:14:16;3.33;;;2.10;;
72209;SDS011;60113;48.762;12.302;2022-09-09T07:17:02;4.28;;;2.30;;
72209;SDS011;60113;48.762;12.302;2022-09-09T07:19:48;2.22;;;2.03;;
72209;SDS011;60113;48.762;12.302;2022-09-09T07:22:33;4.20;;;2.60;;
72209;SDS011;60113;48.762;12.302;2022-09-09T07:25:19;3.47;;;2.72;;
72209;SDS011;60113;48.762;12.302;2022-09-09T07:28:06;4.18;;;2.10;;
72209;SDS011;60113;48.762;12.302;2022-09-09T07:30:56;3.45;;;2.03;;
72209;SDS011;60113;48.762;12.302;2022-09-09T07:33:49;4.68;;;2.17;;
72209;SDS011;60113;48.762;12.302;2022-09-09T07:36:36;2.65;;;2.00;;
72209;SDS011;60113;48.762;12.302;2022-09-09T07:39:23;5.63;;;2.42;;
72209;SDS011;60113;48.762;12.302;2022-09-09T07:42:09;5.20;;;2.22;;
72209;SDS011;60113;48.762;12.302;2022-09-09T07:44:57;5.78;;;3.20;;
72209;SDS011;60113;48.762;12.302;2022-09-09T07:47:42;4.72;;;2.55;;
72209;SDS011;60113;48.762;12.302;2022-09-09T07:50:28;4.20;;;2.72;;
72209;SDS011;60113;48.762;12.302;2022-09-09T07:53:15;4.78;;;2.30;;
72209;SDS011;60113;48.762;12.302;2022-09-09T07:56:08;2.75;;;2.20;;
72209;SDS011;60113;48.762;12.302;2022-09-09T07:58:58;5.47;;;2.70;;
72209;SDS011;60113;48.762;12.302;2022-09-09T08:01:45;6.22;;;2.30;;
72209;SDS011;60113;48.762;12.302;2022-09-09T08:04:32;8.52;;;2.90;;
72209;SDS011;60113;48.762;12.302;2022-09-09T08:07:19;11.60;;;4.90;;
72209;SDS011;60113;48.762;12.302;2022-09-09T08:10:06;9.63;;;4.72;;
72209;SDS011;60113;48.762;12.302;2022-09-09T08:12:52;8.32;;;4.38;;
72209;SDS011;60113;48.762;12.302;2022-09-09T08:15:38;8.00;;;3.08;;
72209;SDS011;60113;48.762;12.302;2022-09-09T08:18:26;10.30;;;2.80;;
72209;SDS011;60113;48.762;12.302;2022-09-09T08:21:13;3.33;;;2.63;;
72209;SDS011;60113;48.762;12.302;2022-09-09T08:24:02;4.93;;;3.03;;
72209;SDS011;60113;48.762;12.302;2022-09-09T08:26:50;9.77;;;2.95;;
72209;SDS011;60113;48.762;12.302;2022-09-09T08:29:36;3.88;;;2.60;;
72209;SDS011;60113;48.762;12.302;2022-09-09T08:32:23;4.20;;;2.80;;
72209;SDS011;60113;48.762;12.302;2022-09-09T08:35:08;9.35;;;3.15;;
72209;SDS011;60113;48.762;12.302;2022-09-09T08:37:54;3.75;;;2.72;;
72209;SDS011;60113;48.762;12.302;2022-09-09T08:40:41;3.88;;;2.42;;
72209;SDS011;60113;48.762;12.302;2022-09-09T08:43:34;11.27;;;2.92;;
72209;SDS011;60113;48.762;12.302;2022-09-09T08:46:24;5.10;;;2.67;;
72209;SDS011;60113;48.762;12.302;2022-09-09T08:52:07;4.32;;;2.60;;
72209;SDS011;60113;48.762;12.302;2022-09-09T08:58:29;8.07;;;2.35;;
72209;SDS011;60113;48.762;12.302;2022-09-09T09:04:53;4.93;;;2.33;;
72209;SDS011;60113;48.762;12.302;2022-09-09T09:11:08;4.25;;;2.03;;
72209;SDS011;60113;48.762;12.302;2022-09-09T09:13:58;2.78;;;1.70;;
72209;SDS011;60113;48.762;12.302;2022-09-09T09:16:59;4.32;;;1.60;;
72209;SDS011;60113;48.762;12.302;2022-09-09T09:19:55;3.22;;;1.77;;
72209;SDS011;60113;48.762;12.302;2022-09-09T09:22:44;5.80;;;1.85;;
72209;SDS011;60113;48.762;12.302;2022-09-09T09:25:36;6.20;;;2.20;;
72209;SDS011;60113;48.762;12.302;2022-09-09T09:28:27;5.03;;;2.50;;
72209;SDS011;60113;48.762;12.302;2022-09-09T09:31:16;7.47;;;2.47;;
72209;SDS011;60113;48.762;12.302;2022-09-09T09:34:05;7.18;;;2.72;;
72209;SDS011;60113;48.762;12.302;2022-09-09T09:36:54;4.13;;;2.15;;
72209;SDS011;60113;48.762;12.302;2022-09-09T09:39:42;3.58;;;2.22;;
72209;SDS011;60113;48.762;12.302;2022-09-09T09:42:28;7.63;;;2.72;;
72209;SDS011;60113;48.762;12.302;2022-09-09T09:45:47;10.82;;;2.20;;
72209;SDS011;60113;48.762;12.302;2022-09-09T09:48:32;9.27;;;2.63;;
72209;SDS011;60113;48.762;12.302;2022-09-09T09:51:18;7.85;;;3.00;;
72209;SDS011;60113;48.762;12.302;2022-09-09T09:54:19;13.10;;;2.85;;
72209;SDS011;60113;48.762;12.302;2022-09-09T09:57:14;6.50;;;2.60;;
72209;SDS011;60113;48.762;12.302;2022-09-09T10:00:03;7.18;;;2.50;;
72209;SDS011;60113;48.762;12.302;2022-09-09T10:02:52;8.23;;;2.40;;
72209;SDS011;60113;48.762;12.302;2022-09-09T10:05:38;4.90;;;1.98;;
72209;SDS011;60113;48.762;12.302;2022-09-09T10:08:33;6.65;;;2.08;;
72209;SDS011;60113;48.762;12.302;2022-09-09T10:11:35;8.35;;;2.28;;
72209;SDS011;60113;48.762;12.302;2022-09-09T10:14:29;4.65;;;1.80;;
72209;SDS011;60113;48.762;12.302;2022-09-09T10:17:33;11.18;;;2.33;;
72209;SDS011;60113;48.762;12.302;2022-09-09T10:26:38;8.25;;;2.80;;
72209;SDS011;60113;48.762;12.302;2022-09-09T10:30:20;8.15;;;2.95;;
72209;SDS011;60113;48.762;12.302;2022-09-09T10:32:48;7.22;;;3.00;;
72209;SDS011;60113;48.762;12.302;2022-09-09T10:38:45;10.20;;;3.22;;
72209;SDS011;60113;48.762;12.302;2022-09-09T10:41:39;12.73;;;3.13;;
72209;SDS011;60113;48.762;12.302;2022-09-09T10:48:14;5.60;;;2.20;;
72209;SDS011;60113;48.762;12.302;2022-09-09T10:57:01;5.75;;;2.53;;
72209;SDS011;60113;48.762;12.302;2022-09-09T10:59:52;4.00;;;2.20;;
72209;SDS011;60113;48.762;12.302;2022-09-09T11:02:42;3.53;;;2.28;;
72209;SDS011;60113;48.762;12.302;2022-09-09T11:08:34;5.75;;;2.38;;
72209;SDS011;60113;48.762;12.302;2022-09-09T11:11:27;4.70;;;2.80;;
72209;SDS011;60113;48.762;12.302;2022-09-09T11:15:12;4.90;;;2.78;;
72209;SDS011;60113;48.762;12.302;2022-09-09T11:17:50;8.98;;;4.93;;
72209;SDS011;60113;48.762;12.302;2022-09-09T11:20:40;4.10;;;2.50;;
72209;SDS011;60113;48.762;12.302;2022-09-09T11:23:33;5.43;;;3.17;;
72209;SDS011;60113;48.762;12.302;2022-09-09T11:26:31;7.60;;;3.78;;
72209;SDS011;60113;48.762;12.302;2022-09-09T11:38:54;7.25;;;3.25;;
72209;SDS011;60113;48.762;12.302;2022-09-09T11:41:51;4.90;;;2.90;;
72209;SDS011;60113;48.762;12.302;2022-09-09T11:44:37;4.95;;;3.08;;
72209;SDS011;60113;48.762;12.302;2022-09-09T11:56:09;5.50;;;2.35;;
72209;SDS011;60113;48.762;12.302;2022-09-09T11:59:05;3.42;;;1.90;;
72209;SDS011;60113;48.762;12.302;2022-09-09T12:02:14;5.18;;;1.92;;
72209;SDS011;60113;48.762;12.302;2022-09-09T12:05:08;2.90;;;1.65;;
72209;SDS011;60113;48.762;12.302;2022-09-09T12:07:59;5.90;;;1.88;;
72209;SDS011;60113;48.762;12.302;2022-09-09T12:10:54;4.13;;;1.80;;
72209;SDS011;60113;48.762;12.302;2022-09-09T12:13:41;5.18;;;1.63;;
72209;SDS011;60113;48.762;12.302;2022-09-09T12:16:38;6.28;;;1.95;;
72209;SDS011;60113;48.762;12.302;2022-09-09T12:19:25;3.40;;;1.40;;
72209;SDS011;60113;48.762;12.302;2022-09-09T12:25:54;3.65;;;1.52;;
72209;SDS011;60113;48.762;12.302;2022-09-09T12:28:39;3.53;;;1.33;;
72209;SDS011;60113;48.762;12.302;2022-09-09T12:34:19;1.83;;;1.23;;
72209;SDS011;60113;48.762;12.302;2022-09-09T12:37:36;4.03;;;1.30;;
72209;SDS011;60113;48.762;12.302;2022-09-09T12:40:25;3.45;;;1.30;;
72209;SDS011;60113;48.762;12.302;2022-09-09T12:43:21;2.85;;;1.52;;
72209;SDS011;60113;48.762;12.302;2022-09-09T12:46:20;3.55;;;1.05;;
72209;SDS011;60113;48.762;12.302;2022-09-09T12:49:28;3.85;;;1.30;;
72209;SDS011;60113;48.762;12.302;2022-09-09T12:52:37;4.55;;;1.20;;
72209;SDS011;60113;48.762;12.302;2022-09-09T12:55:28;3.47;;;1.08;;
72209;SDS011;60113;48.762;12.302;2022-09-09T12:58:17;2.03;;;1.17;;
72209;SDS011;60113;48.762;12.302;2022-09-09T13:01:04;5.60;;;1.05;;
72209;SDS011;60113;48.762;12.302;2022-09-09T13:03:51;3.40;;;1.20;;
72209;SDS011;60113;48.762;12.302;2022-09-09T13:06:38;2.72;;;1.00;;
72209;SDS011;60113;48.762;12.302;2022-09-09T13:09:24;2.75;;;1.02;;
72209;SDS011;60113;48.762;12.302;2022-09-09T13:12:13;2.55;;;1.13;;
72209;SDS011;60113;48.762;12.302;2022-09-09T13:15:03;2.70;;;1.08;;
72209;SDS011;60113;48.762;12.302;2022-09-09T13:17:57;1.85;;;1.00;;
72209;SDS011;60113;48.762;12.302;2022-09-09T13:20:47;2.85;;;1.25;;
72209;SDS011;60113;48.762;12.302;2022-09-09T13:23:34;1.30;;;0.93;;
72209;SDS011;60113;48.762;12.302;2022-09-09T13:26:23;2.08;;;1.00;;
72209;SDS011;60113;48.762;12.302;2022-09-09T13:29:17;4.32;;;1.10;;
72209;SDS011;60113;48.762;12.302;2022-09-09T13:37:22;2.55;;;1.42;;
72209;SDS011;60113;48.762;12.302;2022-09-09T13:40:19;1.88;;;0.98;;
72209;SDS011;60113;48.762;12.302;2022-09-09T13:43:14;3.03;;;1.17;;
72209;SDS011;60113;48.762;12.302;2022-09-09T13:49:23;1.88;;;0.90;;
72209;SDS011;60113;48.762;12.302;2022-09-09T13:52:17;1.80;;;0.60;;
72209;SDS011;60113;48.762;12.302;2022-09-09T13:55:04;1.85;;;0.70;;
72209;SDS011;60113;48.762;12.302;2022-09-09T13:57:59;1.60;;;0.60;;
72209;SDS011;60113;48.762;12.302;2022-09-09T14:00:47;1.33;;;0.60;;
72209;SDS011;60113;48.762;12.302;2022-09-09T14:03:33;4.43;;;1.02;;
72209;SDS011;60113;48.762;12.302;2022-09-09T14:06:20;2.28;;;0.85;;
72209;SDS011;60113;48.762;12.302;2022-09-09T14:09:09;2.60;;;1.00;;
72209;SDS011;60113;48.762;12.302;2022-09-09T14:11:58;5.03;;;0.93;;
72209;SDS011;60113;48.762;12.302;2022-09-09T14:14:43;3.35;;;0.88;;
72209;SDS011;60113;48.762;12.302;2022-09-09T14:17:30;4.55;;;1.30;;
72209;SDS011;60113;48.762;12.302;2022-09-09T14:20:16;2.25;;;1.00;;
72209;SDS011;60113;48.762;12.302;2022-09-09T14:23:03;2.53;;;0.90;;
72209;SDS011;60113;48.762;12.302;2022-09-09T14:25:50;3.50;;;0.95;;
72209;SDS011;60113;48.762;12.302;2022-09-09T14:28:36;7.18;;;0.85;;
72209;SDS011;60113;48.762;12.302;2022-09-09T14:31:23;4.13;;;1.38;;
72209;SDS011;60113;48.762;12.302;2022-09-09T14:34:10;2.58;;;0.98;;
72209;SDS011;60113;48.762;12.302;2022-09-09T14:36:56;3.90;;;1.00;;
72209;SDS011;60113;48.762;12.302;2022-09-09T14:39:42;1.13;;;0.88;;
72209;SDS011;60113;48.762;12.302;2022-09-09T14:42:32;7.53;;;0.90;;
72209;SDS011;60113;48.762;12.302;2022-09-09T14:45:18;1.67;;;0.95;;
72209;SDS011;60113;48.762;12.302;2022-09-09T14:48:04;1.42;;;0.70;;
72209;SDS011;60113;48.762;12.302;2022-09-09T14:50:50;1.60;;;0.90;;
72209;SDS011;60113;48.762;12.302;2022-09-09T14:53:36;3.67;;;1.33;;
72209;SDS011;60113;48.762;12.302;2022-09-09T14:56:22;3.35;;;1.10;;
72209;SDS011;60113;48.762;12.302;2022-09-09T14:59:11;2.20;;;1.08;;
72209;SDS011;60113;48.762;12.302;2022-09-09T15:01:58;2.25;;;0.82;;
72209;SDS011;60113;48.762;12.302;2022-09-09T15:04:49;1.17;;;0.70;;
72209;SDS011;60113;48.762;12.302;2022-09-09T15:07:38;1.98;;;0.70;;
72209;SDS011;60113;48.762;12.302;2022-09-09T15:10:24;0.90;;;0.50;;
72209;SDS011;60113;48.762;12.302;2022-09-09T15:13:11;2.05;;;0.90;;
72209;SDS011;60113;48.762;12.302;2022-09-09T15:16:03;2.03;;;0.70;;
72209;SDS011;60113;48.762;12.302;2022-09-09T15:18:54;1.80;;;0.60;;
72209;SDS011;60113;48.762;12.302;2022-09-09T15:21:42;1.88;;;0.90;;
72209;SDS011;60113;48.762;12.302;2022-09-09T15:24:27;5.70;;;0.88;;
72209;SDS011;60113;48.762;12.302;2022-09-09T15:27:13;5.03;;;0.95;;
72209;SDS011;60113;48.762;12.302;2022-09-09T15:29:59;1.23;;;0.80;;
72209;SDS011;60113;48.762;12.302;2022-09-09T15:32:46;2.88;;;0.90;;
72209;SDS011;60113;48.762;12.302;2022-09-09T15:35:32;2.83;;;1.00;;
72209;SDS011;60113;48.762;12.302;2022-09-09T15:38:18;10.68;;;1.67;;
72209;SDS011;60113;48.762;12.302;2022-09-09T15:41:04;3.70;;;0.50;;
72209;SDS011;60113;48.762;12.302;2022-09-09T15:43:50;4.55;;;0.90;;
72209;SDS011;60113;48.762;12.302;2022-09-09T15:46:40;3.15;;;0.80;;
72209;SDS011;60113;48.762;12.302;2022-09-09T15:49:34;3.42;;;0.70;;
72209;SDS011;60113;48.762;12.302;2022-09-09T15:52:20;1.70;;;0.57;;
72209;SDS011;60113;48.762;12.302;2022-09-09T15:55:07;3.15;;;0.65;;
72209;SDS011;60113;48.762;12.302;2022-09-09T15:57:53;3.88;;;0.70;;
72209;SDS011;60113;48.762;12.302;2022-09-09T16:00:40;1.38;;;0.60;;
72209;SDS011;60113;48.762;12.302;2022-09-09T16:03:26;1.58;;;0.60;;
72209;SDS011;60113;48.762;12.302;2022-09-09T16:06:14;2.40;;;1.02;;
72209;SDS011;60113;48.762;12.302;2022-09-09T16:09:02;2.97;;;0.80;;
72209;SDS011;60113;48.762;12.302;2022-09-09T16:11:50;2.15;;;0.75;;
72209;SDS011;60113;48.762;12.302;2022-09-09T16:14:38;2.33;;;0.80;;
72209;SDS011;60113;48.762;12.302;2022-09-09T16:17:24;4.03;;;0.70;;
72209;SDS011;60113;48.762;12.302;2022-09-09T16:20:10;1.73;;;0.43;;
72209;SDS011;60113;48.762;12.302;2022-09-09T16:22:57;3.33;;;0.90;;
72209;SDS011;60113;48.762;12.302;2022-09-09T16:25:44;3.67;;;0.50;;
72209;SDS011;60113;48.762;12.302;2022-09-09T16:28:29;1.92;;;0.40;;
72209;SDS011;60113;48.762;12.302;2022-09-09T16:31:19;3.53;;;1.20;;
72209;SDS011;60113;48.762;12.302;2022-09-09T16:34:07;1.27;;;0.63;;
72209;SDS011;60113;48.762;12.302;2022-09-09T16:36:53;5.03;;;0.90;;
72209;SDS011;60113;48.762;12.302;2022-09-09T16:39:39;3.15;;;1.10;;
72209;SDS011;60113;48.762;12.302;2022-09-09T16:42:25;4.93;;;0.90;;
72209;SDS011;60113;48.762;12.302;2022-09-09T16:45:11;1.52;;;0.57;;
72209;SDS011;60113;48.762;12.302;2022-09-09T16:47:59;2.88;;;0.77;;
72209;SDS011;60113;48.762;12.302;2022-09-09T16:50:48;1.25;;;0.60;;
72209;SDS011;60113;48.762;12.302;2022-09-09T16:53:49;3.20;;;1.50;;
72209;SDS011;60113;48.762;12.302;2022-09-09T16:56:40;4.22;;;0.70;;
72209;SDS011;60113;48.762;12.302;2022-09-09T16:59:28;1.40;;;0.43;;
72209;SDS011;60113;48.762;12.302;2022-09-09T17:02:15;4.07;;;0.70;;
72209;SDS011;60113;48.762;12.302;2022-09-09T17:05:03;2.63;;;0.70;;
72209;SDS011;60113;48.762;12.302;2022-09-09T17:11:37;1.20;;;0.43;;
72209;SDS011;60113;48.762;12.302;2022-09-09T17:14:25;5.75;;;0.90;;
72209;SDS011;60113;48.762;12.302;2022-09-09T17:17:11;1.65;;;0.50;;
72209;SDS011;60113;48.762;12.302;2022-09-09T17:19:59;1.35;;;0.68;;
72209;SDS011;60113;48.762;12.302;2022-09-09T17:22:45;3.78;;;1.10;;
72209;SDS011;60113;48.762;12.302;2022-09-09T17:25:55;1.88;;;0.77;;
72209;SDS011;60113;48.762;12.302;2022-09-09T17:31:40;5.75;;;0.82;;
72209;SDS011;60113;48.762;12.302;2022-09-09T17:34:26;2.25;;;1.02;;
72209;SDS011;60113;48.762;12.302;2022-09-09T17:37:12;2.85;;;1.30;;
72209;SDS011;60113;48.762;12.302;2022-09-09T17:39:58;2.72;;;1.20;;
72209;SDS011;60113;48.762;12.302;2022-09-09T17:42:44;4.63;;;1.48;;
72209;SDS011;60113;48.762;12.302;2022-09-09T17:45:30;1.42;;;1.10;;
72209;SDS011;60113;48.762;12.302;2022-09-09T17:48:15;3.35;;;1.70;;
72209;SDS011;60113;48.762;12.302;2022-09-09T17:51:02;1.92;;;0.90;;
72209;SDS011;60113;48.762;12.302;2022-09-09T17:53:50;3.72;;;0.90;;
72209;SDS011;60113;48.762;12.302;2022-09-09T17:56:38;2.15;;;0.90;;
72209;SDS011;60113;48.762;12.302;2022-09-09T17:59:29;4.63;;;1.38;;
72209;SDS011;60113;48.762;12.302;2022-09-09T18:02:20;2.25;;;1.10;;
72209;SDS011;60113;48.762;12.302;2022-09-09T18:05:06;3.90;;;1.30;;
72209;SDS011;60113;48.762;12.302;2022-09-09T18:07:53;3.50;;;1.50;;
72209;SDS011;60113;48.762;12.302;2022-09-09T18:10:39;6.70;;;1.73;;
72209;SDS011;60113;48.762;12.302;2022-09-09T18:13:25;2.70;;;1.40;;
72209;SDS011;60113;48.762;12.302;2022-09-09T18:16:12;3.58;;;1.52;;
72209;SDS011;60113;48.762;12.302;2022-09-09T18:18:58;5.65;;;1.42;;
72209;SDS011;60113;48.762;12.302;2022-09-09T18:21:48;2.63;;;1.45;;
72209;SDS011;60113;48.762;12.302;2022-09-09T18:24:35;4.88;;;1.70;;
72209;SDS011;60113;48.762;12.302;2022-09-09T18:27:21;2.80;;;1.45;;
72209;SDS011;60113;48.762;12.302;2022-09-09T18:30:07;9.10;;;1.45;;